sensor_id;sensor_type;location;lat;lon;timestamp;P1;durP1;ratioP1;P2;durP2;ratioP2
44078;SDS011;29744;49.078;12.878;2023-04-28T00:03:08;0.20;;;0.20;;
44078;SDS011;29744;49.078;12.878;2023-04-28T00:08:09;0.73;;;0.35;;
44078;SDS011;29744;49.078;12.878;2023-04-28T00:13:09;0.30;;;0.30;;
44078;SDS011;29744;49.078;12.878;2023-04-28T00:18:10;0.52;;;0.38;;
44078;SDS011;29744;49.078;12.878;2023-04-28T00:23:10;0.35;;;0.30;;
44078;SDS011;29744;49.078;12.878;2023-04-28T00:28:11;0.30;;;0.30;;
44078;SDS011;29744;49.078;12.878;2023-04-28T00:33:11;0.30;;;0.30;;
44078;SDS011;29744;49.078;12.878;2023-04-28T00:38:12;0.20;;;0.20;;
44078;SDS011;29744;49.078;12.878;2023-04-28T00:43:12;0.20;;;0.20;;
44078;SDS011;29744;49.078;12.878;2023-04-28T00:48:13;0.20;;;0.20;;
44078;SDS011;29744;49.078;12.878;2023-04-28T00:53:13;0.22;;;0.20;;
44078;SDS011;29744;49.078;12.878;2023-04-28T00:58:13;0.35;;;0.30;;
44078;SDS011;29744;49.078;12.878;2023-04-28T01:03:14;0.63;;;0.30;;
44078;SDS011;29744;49.078;12.878;2023-04-28T01:08:14;0.40;;;0.30;;
44078;SDS011;29744;49.078;12.878;2023-04-28T01:13:15;0.65;;;0.32;;
44078;SDS011;29744;49.078;12.878;2023-04-28T01:18:15;0.40;;;0.40;;
44078;SDS011;29744;49.078;12.878;2023-04-28T01:23:15;0.30;;;0.30;;
44078;SDS011;29744;49.078;12.878;2023-04-28T01:28:16;0.35;;;0.30;;
44078;SDS011;29744;49.078;12.878;2023-04-28T01:33:17;0.82;;;0.60;;
44078;SDS011;29744;49.078;12.878;2023-04-28T01:38:17;0.47;;;0.45;;
44078;SDS011;29744;49.078;12.878;2023-04-28T01:43:17;0.30;;;0.30;;
44078;SDS011;29744;49.078;12.878;2023-04-28T01:48:17;0.30;;;0.20;;
44078;SDS011;29744;49.078;12.878;2023-04-28T01:53:18;0.30;;;0.30;;
44078;SDS011;29744;49.078;12.878;2023-04-28T01:58:19;0.20;;;0.20;;
44078;SDS011;29744;49.078;12.878;2023-04-28T02:03:20;0.30;;;0.30;;
44078;SDS011;29744;49.078;12.878;2023-04-28T02:08:20;0.40;;;0.30;;
44078;SDS011;29744;49.078;12.878;2023-04-28T02:13:20;0.22;;;0.22;;
44078;SDS011;29744;49.078;12.878;2023-04-28T02:18:20;0.40;;;0.40;;
44078;SDS011;29744;49.078;12.878;2023-04-28T02:23:21;0.20;;;0.20;;
44078;SDS011;29744;49.078;12.878;2023-04-28T02:28:21;0.20;;;0.20;;
44078;SDS011;29744;49.078;12.878;2023-04-28T02:33:21;0.40;;;0.35;;
44078;SDS011;29744;49.078;12.878;2023-04-28T02:38:22;0.63;;;0.40;;
44078;SDS011;29744;49.078;12.878;2023-04-28T02:43:22;0.30;;;0.30;;
44078;SDS011;29744;49.078;12.878;2023-04-28T02:48:22;0.50;;;0.35;;
44078;SDS011;29744;49.078;12.878;2023-04-28T02:53:23;0.32;;;0.30;;
44078;SDS011;29744;49.078;12.878;2023-04-28T02:58:23;0.20;;;0.20;;
44078;SDS011;29744;49.078;12.878;2023-04-28T03:03:24;0.82;;;0.30;;
44078;SDS011;29744;49.078;12.878;2023-04-28T03:08:24;0.52;;;0.30;;
44078;SDS011;29744;49.078;12.878;2023-04-28T03:13:24;0.60;;;0.40;;
44078;SDS011;29744;49.078;12.878;2023-04-28T03:18:25;0.47;;;0.30;;
44078;SDS011;29744;49.078;12.878;2023-04-28T03:23:26;0.35;;;0.30;;
44078;SDS011;29744;49.078;12.878;2023-04-28T03:28:26;0.52;;;0.38;;
44078;SDS011;29744;49.078;12.878;2023-04-28T03:33:26;0.22;;;0.20;;
44078;SDS011;29744;49.078;12.878;2023-04-28T03:38:27;0.28;;;0.28;;
44078;SDS011;29744;49.078;12.878;2023-04-28T03:43:27;0.80;;;0.40;;
44078;SDS011;29744;49.078;12.878;2023-04-28T03:48:27;0.42;;;0.28;;
44078;SDS011;29744;49.078;12.878;2023-04-28T03:53:28;0.30;;;0.30;;
44078;SDS011;29744;49.078;12.878;2023-04-28T03:58:28;0.30;;;0.30;;
44078;SDS011;29744;49.078;12.878;2023-04-28T04:03:28;0.30;;;0.30;;
44078;SDS011;29744;49.078;12.878;2023-04-28T04:08:29;0.65;;;0.30;;
44078;SDS011;29744;49.078;12.878;2023-04-28T04:13:29;0.30;;;0.30;;
44078;SDS011;29744;49.078;12.878;2023-04-28T04:18:30;0.45;;;0.38;;
44078;SDS011;29744;49.078;12.878;2023-04-28T04:23:30;0.25;;;0.25;;
44078;SDS011;29744;49.078;12.878;2023-04-28T04:28:30;0.20;;;0.20;;
44078;SDS011;29744;49.078;12.878;2023-04-28T04:33:31;0.47;;;0.30;;
44078;SDS011;29744;49.078;12.878;2023-04-28T04:38:33;0.20;;;0.20;;
44078;SDS011;29744;49.078;12.878;2023-04-28T04:43:33;0.40;;;0.40;;
44078;SDS011;29744;49.078;12.878;2023-04-28T04:48:34;0.30;;;0.30;;
44078;SDS011;29744;49.078;12.878;2023-04-28T04:53:34;0.70;;;0.35;;
44078;SDS011;29744;49.078;12.878;2023-04-28T04:58:35;0.22;;;0.20;;
44078;SDS011;29744;49.078;12.878;2023-04-28T05:03:35;0.52;;;0.30;;
44078;SDS011;29744;49.078;12.878;2023-04-28T05:08:35;0.30;;;0.30;;
44078;SDS011;29744;49.078;12.878;2023-04-28T05:13:35;0.30;;;0.30;;
44078;SDS011;29744;49.078;12.878;2023-04-28T05:18:36;0.17;;;0.17;;
44078;SDS011;29744;49.078;12.878;2023-04-28T05:23:36;0.30;;;0.20;;
44078;SDS011;29744;49.078;12.878;2023-04-28T05:28:38;0.30;;;0.30;;
44078;SDS011;29744;49.078;12.878;2023-04-28T05:33:39;0.35;;;0.22;;
44078;SDS011;29744;49.078;12.878;2023-04-28T05:38:39;0.40;;;0.20;;
44078;SDS011;29744;49.078;12.878;2023-04-28T05:43:40;0.20;;;0.20;;
44078;SDS011;29744;49.078;12.878;2023-04-28T05:48:40;0.20;;;0.20;;
44078;SDS011;29744;49.078;12.878;2023-04-28T05:53:40;0.90;;;0.40;;
44078;SDS011;29744;49.078;12.878;2023-04-28T05:58:41;0.20;;;0.20;;
44078;SDS011;29744;49.078;12.878;2023-04-28T06:03:43;0.77;;;0.35;;
44078;SDS011;29744;49.078;12.878;2023-04-28T06:08:44;0.35;;;0.20;;
44078;SDS011;29744;49.078;12.878;2023-04-28T06:13:47;0.38;;;0.30;;
44078;SDS011;29744;49.078;12.878;2023-04-28T06:18:48;0.38;;;0.30;;
44078;SDS011;29744;49.078;12.878;2023-04-28T06:23:48;0.20;;;0.20;;
44078;SDS011;29744;49.078;12.878;2023-04-28T06:28:49;0.15;;;0.15;;
44078;SDS011;29744;49.078;12.878;2023-04-28T06:33:50;0.30;;;0.30;;
44078;SDS011;29744;49.078;12.878;2023-04-28T06:38:50;0.63;;;0.30;;
44078;SDS011;29744;49.078;12.878;2023-04-28T06:43:50;0.38;;;0.30;;
44078;SDS011;29744;49.078;12.878;2023-04-28T06:48:51;0.20;;;0.20;;
44078;SDS011;29744;49.078;12.878;2023-04-28T06:53:51;0.43;;;0.30;;
44078;SDS011;29744;49.078;12.878;2023-04-28T06:58:53;0.30;;;0.30;;
44078;SDS011;29744;49.078;12.878;2023-04-28T07:03:54;0.30;;;0.20;;
44078;SDS011;29744;49.078;12.878;2023-04-28T07:08:55;0.40;;;0.30;;
44078;SDS011;29744;49.078;12.878;2023-04-28T07:13:55;0.20;;;0.20;;
44078;SDS011;29744;49.078;12.878;2023-04-28T07:18:55;0.30;;;0.30;;
44078;SDS011;29744;49.078;12.878;2023-04-28T07:23:56;0.47;;;0.30;;
44078;SDS011;29744;49.078;12.878;2023-04-28T07:28:56;0.20;;;0.20;;
44078;SDS011;29744;49.078;12.878;2023-04-28T07:33:56;0.30;;;0.30;;
44078;SDS011;29744;49.078;12.878;2023-04-28T07:38:58;0.30;;;0.30;;
44078;SDS011;29744;49.078;12.878;2023-04-28T07:43:59;0.25;;;0.25;;
44078;SDS011;29744;49.078;12.878;2023-04-28T07:48:59;0.40;;;0.25;;
44078;SDS011;29744;49.078;12.878;2023-04-28T07:54:00;0.20;;;0.20;;
44078;SDS011;29744;49.078;12.878;2023-04-28T07:59:00;0.40;;;0.38;;
44078;SDS011;29744;49.078;12.878;2023-04-28T08:04:00;0.20;;;0.20;;
44078;SDS011;29744;49.078;12.878;2023-04-28T08:09:01;0.22;;;0.20;;
44078;SDS011;29744;49.078;12.878;2023-04-28T08:14:01;0.43;;;0.30;;
44078;SDS011;29744;49.078;12.878;2023-04-28T08:19:02;0.25;;;0.20;;
44078;SDS011;29744;49.078;12.878;2023-04-28T08:24:02;0.35;;;0.30;;
44078;SDS011;29744;49.078;12.878;2023-04-28T08:29:05;0.20;;;0.20;;
44078;SDS011;29744;49.078;12.878;2023-04-28T08:34:05;0.20;;;0.20;;
44078;SDS011;29744;49.078;12.878;2023-04-28T08:39:06;0.30;;;0.25;;
44078;SDS011;29744;49.078;12.878;2023-04-28T08:44:08;0.20;;;0.20;;
44078;SDS011;29744;49.078;12.878;2023-04-28T08:49:14;0.30;;;0.30;;
44078;SDS011;29744;49.078;12.878;2023-04-28T08:54:15;0.47;;;0.30;;
44078;SDS011;29744;49.078;12.878;2023-04-28T08:59:16;0.57;;;0.32;;
44078;SDS011;29744;49.078;12.878;2023-04-28T09:04:18;0.20;;;0.20;;
44078;SDS011;29744;49.078;12.878;2023-04-28T09:14:22;0.43;;;0.30;;
44078;SDS011;29744;49.078;12.878;2023-04-28T09:19:23;0.30;;;0.30;;
44078;SDS011;29744;49.078;12.878;2023-04-28T09:24:37;0.20;;;0.20;;
44078;SDS011;29744;49.078;12.878;2023-04-28T09:29:50;0.20;;;0.20;;
44078;SDS011;29744;49.078;12.878;2023-04-28T09:34:53;0.20;;;0.20;;
44078;SDS011;29744;49.078;12.878;2023-04-28T09:39:56;0.20;;;0.20;;
44078;SDS011;29744;49.078;12.878;2023-04-28T09:44:57;0.35;;;0.35;;
44078;SDS011;29744;49.078;12.878;2023-04-28T09:49:58;0.52;;;0.40;;
44078;SDS011;29744;49.078;12.878;2023-04-28T10:00:06;0.30;;;0.30;;
44078;SDS011;29744;49.078;12.878;2023-04-28T10:05:08;0.30;;;0.30;;
44078;SDS011;29744;49.078;12.878;2023-04-28T10:10:08;0.35;;;0.30;;
44078;SDS011;29744;49.078;12.878;2023-04-28T10:15:10;0.20;;;0.20;;
44078;SDS011;29744;49.078;12.878;2023-04-28T10:20:12;0.40;;;0.30;;
44078;SDS011;29744;49.078;12.878;2023-04-28T10:25:28;0.40;;;0.30;;
44078;SDS011;29744;49.078;12.878;2023-04-28T10:30:31;0.20;;;0.20;;
44078;SDS011;29744;49.078;12.878;2023-04-28T10:56:04;0.45;;;0.30;;
44078;SDS011;29744;49.078;12.878;2023-04-28T11:11:23;0.43;;;0.30;;
44078;SDS011;29744;49.078;12.878;2023-04-28T11:16:25;1.08;;;0.20;;
44078;SDS011;29744;49.078;12.878;2023-04-28T11:21:25;0.30;;;0.30;;
44078;SDS011;29744;49.078;12.878;2023-04-28T11:26:27;0.60;;;0.35;;
44078;SDS011;29744;49.078;12.878;2023-04-28T11:31:27;0.30;;;0.30;;
44078;SDS011;29744;49.078;12.878;2023-04-28T11:36:37;0.10;;;0.10;;
44078;SDS011;29744;49.078;12.878;2023-04-28T11:46:46;0.20;;;0.20;;
44078;SDS011;29744;49.078;12.878;2023-04-28T11:51:50;0.95;;;0.40;;
44078;SDS011;29744;49.078;12.878;2023-04-28T11:56:52;0.85;;;0.32;;
44078;SDS011;29744;49.078;12.878;2023-04-28T12:01:55;0.20;;;0.10;;
44078;SDS011;29744;49.078;12.878;2023-04-28T12:07:08;0.30;;;0.30;;
44078;SDS011;29744;49.078;12.878;2023-04-28T12:12:16;0.67;;;0.50;;
44078;SDS011;29744;49.078;12.878;2023-04-28T12:17:29;0.30;;;0.30;;
44078;SDS011;29744;49.078;12.878;2023-04-28T12:22:42;0.20;;;0.20;;
44078;SDS011;29744;49.078;12.878;2023-04-28T12:27:58;0.50;;;0.40;;
44078;SDS011;29744;49.078;12.878;2023-04-28T12:33:01;0.40;;;0.40;;
44078;SDS011;29744;49.078;12.878;2023-04-28T12:38:01;0.65;;;0.30;;
44078;SDS011;29744;49.078;12.878;2023-04-28T12:43:01;0.20;;;0.20;;
44078;SDS011;29744;49.078;12.878;2023-04-28T12:48:02;0.40;;;0.40;;
44078;SDS011;29744;49.078;12.878;2023-04-28T12:53:02;0.43;;;0.30;;
44078;SDS011;29744;49.078;12.878;2023-04-28T12:58:02;0.60;;;0.40;;
44078;SDS011;29744;49.078;12.878;2023-04-28T13:03:03;0.50;;;0.30;;
44078;SDS011;29744;49.078;12.878;2023-04-28T13:08:03;0.55;;;0.30;;
44078;SDS011;29744;49.078;12.878;2023-04-28T13:13:04;0.47;;;0.28;;
44078;SDS011;29744;49.078;12.878;2023-04-28T13:18:04;0.47;;;0.30;;
44078;SDS011;29744;49.078;12.878;2023-04-28T13:23:04;0.65;;;0.40;;
44078;SDS011;29744;49.078;12.878;2023-04-28T13:28:05;0.30;;;0.30;;
44078;SDS011;29744;49.078;12.878;2023-04-28T13:33:05;0.43;;;0.30;;
44078;SDS011;29744;49.078;12.878;2023-04-28T13:38:06;0.30;;;0.30;;
44078;SDS011;29744;49.078;12.878;2023-04-28T13:43:06;0.68;;;0.40;;
44078;SDS011;29744;49.078;12.878;2023-04-28T13:48:06;0.30;;;0.22;;
44078;SDS011;29744;49.078;12.878;2023-04-28T13:53:07;0.30;;;0.30;;
44078;SDS011;29744;49.078;12.878;2023-04-28T13:58:07;0.40;;;0.30;;
44078;SDS011;29744;49.078;12.878;2023-04-28T14:03:08;1.40;;;0.60;;
44078;SDS011;29744;49.078;12.878;2023-04-28T14:08:08;3.22;;;1.40;;
44078;SDS011;29744;49.078;12.878;2023-04-28T14:13:09;2.90;;;1.17;;
44078;SDS011;29744;49.078;12.878;2023-04-28T14:18:09;2.28;;;1.20;;
44078;SDS011;29744;49.078;12.878;2023-04-28T14:23:10;2.47;;;1.20;;
44078;SDS011;29744;49.078;12.878;2023-04-28T14:28:11;2.33;;;1.20;;
44078;SDS011;29744;49.078;12.878;2023-04-28T14:33:11;1.85;;;1.10;;
44078;SDS011;29744;49.078;12.878;2023-04-28T14:38:12;2.72;;;1.30;;
44078;SDS011;29744;49.078;12.878;2023-04-28T14:43:12;3.20;;;1.38;;
44078;SDS011;29744;49.078;12.878;2023-04-28T14:48:13;3.65;;;1.70;;
44078;SDS011;29744;49.078;12.878;2023-04-28T14:53:14;9.32;;;2.13;;
44078;SDS011;29744;49.078;12.878;2023-04-28T14:58:14;6.38;;;2.10;;
44078;SDS011;29744;49.078;12.878;2023-04-28T15:03:14;11.52;;;2.38;;
44078;SDS011;29744;49.078;12.878;2023-04-28T15:08:15;8.70;;;3.30;;
44078;SDS011;29744;49.078;12.878;2023-04-28T15:13:15;7.97;;;2.95;;
44078;SDS011;29744;49.078;12.878;2023-04-28T15:18:16;5.47;;;2.97;;
44078;SDS011;29744;49.078;12.878;2023-04-28T15:23:17;8.23;;;3.00;;
44078;SDS011;29744;49.078;12.878;2023-04-28T15:28:18;5.32;;;2.70;;
44078;SDS011;29744;49.078;12.878;2023-04-28T15:33:19;4.78;;;2.55;;
44078;SDS011;29744;49.078;12.878;2023-04-28T15:38:19;5.13;;;2.40;;
44078;SDS011;29744;49.078;12.878;2023-04-28T15:43:19;6.20;;;2.70;;
44078;SDS011;29744;49.078;12.878;2023-04-28T15:48:19;6.55;;;2.42;;
44078;SDS011;29744;49.078;12.878;2023-04-28T15:53:20;5.40;;;2.28;;
44078;SDS011;29744;49.078;12.878;2023-04-28T15:58:21;5.00;;;2.45;;
44078;SDS011;29744;49.078;12.878;2023-04-28T16:03:21;4.50;;;2.13;;
44078;SDS011;29744;49.078;12.878;2023-04-28T16:08:22;4.97;;;2.25;;
44078;SDS011;29744;49.078;12.878;2023-04-28T16:13:26;6.20;;;2.15;;
44078;SDS011;29744;49.078;12.878;2023-04-28T16:18:30;4.82;;;1.70;;
44078;SDS011;29744;49.078;12.878;2023-04-28T16:23:30;2.85;;;1.65;;
44078;SDS011;29744;49.078;12.878;2023-04-28T16:28:31;4.35;;;2.08;;
44078;SDS011;29744;49.078;12.878;2023-04-28T16:33:31;4.20;;;2.00;;
44078;SDS011;29744;49.078;12.878;2023-04-28T16:38:32;5.20;;;2.00;;
44078;SDS011;29744;49.078;12.878;2023-04-28T16:43:32;4.00;;;1.65;;
44078;SDS011;29744;49.078;12.878;2023-04-28T16:48:35;5.40;;;2.08;;
44078;SDS011;29744;49.078;12.878;2023-04-28T16:53:35;4.47;;;1.80;;
44078;SDS011;29744;49.078;12.878;2023-04-28T16:58:35;3.97;;;2.05;;
44078;SDS011;29744;49.078;12.878;2023-04-28T17:03:35;3.55;;;1.80;;
44078;SDS011;29744;49.078;12.878;2023-04-28T17:08:40;3.13;;;1.77;;
44078;SDS011;29744;49.078;12.878;2023-04-28T17:13:41;5.30;;;2.10;;
44078;SDS011;29744;49.078;12.878;2023-04-28T17:18:41;4.47;;;1.90;;
44078;SDS011;29744;49.078;12.878;2023-04-28T17:23:42;2.88;;;1.70;;
44078;SDS011;29744;49.078;12.878;2023-04-28T17:28:42;3.55;;;1.90;;
44078;SDS011;29744;49.078;12.878;2023-04-28T17:33:43;4.15;;;1.98;;
44078;SDS011;29744;49.078;12.878;2023-04-28T17:38:43;3.13;;;1.63;;
44078;SDS011;29744;49.078;12.878;2023-04-28T17:43:43;4.97;;;2.40;;
44078;SDS011;29744;49.078;12.878;2023-04-28T17:48:44;3.80;;;1.83;;
44078;SDS011;29744;49.078;12.878;2023-04-28T17:53:45;3.42;;;1.90;;
44078;SDS011;29744;49.078;12.878;2023-04-28T17:58:47;4.53;;;2.00;;
44078;SDS011;29744;49.078;12.878;2023-04-28T18:03:47;4.38;;;1.92;;
44078;SDS011;29744;49.078;12.878;2023-04-28T18:08:48;3.53;;;1.83;;
44078;SDS011;29744;49.078;12.878;2023-04-28T18:13:48;2.92;;;1.55;;
44078;SDS011;29744;49.078;12.878;2023-04-28T18:18:49;3.20;;;1.83;;
44078;SDS011;29744;49.078;12.878;2023-04-28T18:23:49;4.70;;;1.83;;
44078;SDS011;29744;49.078;12.878;2023-04-28T18:28:50;3.17;;;1.83;;
44078;SDS011;29744;49.078;12.878;2023-04-28T18:33:50;3.08;;;1.77;;
44078;SDS011;29744;49.078;12.878;2023-04-28T18:38:51;3.55;;;2.05;;
44078;SDS011;29744;49.078;12.878;2023-04-28T18:43:51;3.20;;;1.90;;
44078;SDS011;29744;49.078;12.878;2023-04-28T18:48:53;2.85;;;1.88;;
44078;SDS011;29744;49.078;12.878;2023-04-28T18:53:54;3.38;;;1.88;;
44078;SDS011;29744;49.078;12.878;2023-04-28T18:58:55;3.75;;;1.70;;
44078;SDS011;29744;49.078;12.878;2023-04-28T19:03:55;3.53;;;1.90;;
44078;SDS011;29744;49.078;12.878;2023-04-28T19:08:55;3.58;;;1.75;;
44078;SDS011;29744;49.078;12.878;2023-04-28T19:13:56;3.13;;;1.67;;
44078;SDS011;29744;49.078;12.878;2023-04-28T19:18:57;3.15;;;1.80;;
44078;SDS011;29744;49.078;12.878;2023-04-28T19:23:57;2.40;;;1.48;;
44078;SDS011;29744;49.078;12.878;2023-04-28T19:28:57;2.72;;;1.83;;
44078;SDS011;29744;49.078;12.878;2023-04-28T19:33:57;3.05;;;1.80;;
44078;SDS011;29744;49.078;12.878;2023-04-28T19:38:58;2.47;;;1.50;;
44078;SDS011;29744;49.078;12.878;2023-04-28T19:43:58;2.55;;;1.40;;
44078;SDS011;29744;49.078;12.878;2023-04-28T19:48:58;2.95;;;1.77;;
44078;SDS011;29744;49.078;12.878;2023-04-28T19:53:59;2.88;;;1.60;;
44078;SDS011;29744;49.078;12.878;2023-04-28T19:58:59;3.58;;;1.92;;
44078;SDS011;29744;49.078;12.878;2023-04-28T20:03:59;3.00;;;1.70;;
44078;SDS011;29744;49.078;12.878;2023-04-28T20:09:00;5.20;;;2.22;;
44078;SDS011;29744;49.078;12.878;2023-04-28T20:14:01;3.35;;;2.10;;
44078;SDS011;29744;49.078;12.878;2023-04-28T20:19:01;3.42;;;2.10;;
44078;SDS011;29744;49.078;12.878;2023-04-28T20:24:01;5.03;;;2.40;;
44078;SDS011;29744;49.078;12.878;2023-04-28T20:29:02;4.07;;;2.10;;
44078;SDS011;29744;49.078;12.878;2023-04-28T20:34:02;4.10;;;2.40;;
44078;SDS011;29744;49.078;12.878;2023-04-28T20:39:03;3.28;;;2.10;;
44078;SDS011;29744;49.078;12.878;2023-04-28T20:49:13;3.90;;;2.03;;
44078;SDS011;29744;49.078;12.878;2023-04-28T20:54:14;3.22;;;1.80;;
44078;SDS011;29744;49.078;12.878;2023-04-28T20:59:14;3.63;;;2.03;;
44078;SDS011;29744;49.078;12.878;2023-04-28T21:04:14;3.55;;;2.03;;
44078;SDS011;29744;49.078;12.878;2023-04-28T21:09:15;3.20;;;2.13;;
44078;SDS011;29744;49.078;12.878;2023-04-28T21:14:15;2.92;;;1.92;;
44078;SDS011;29744;49.078;12.878;2023-04-28T21:19:15;2.90;;;1.75;;
44078;SDS011;29744;49.078;12.878;2023-04-28T21:24:16;2.95;;;1.90;;
44078;SDS011;29744;49.078;12.878;2023-04-28T21:29:16;2.97;;;1.60;;
44078;SDS011;29744;49.078;12.878;2023-04-28T21:34:17;2.90;;;1.80;;
44078;SDS011;29744;49.078;12.878;2023-04-28T21:39:17;3.80;;;1.65;;
44078;SDS011;29744;49.078;12.878;2023-04-28T21:44:18;3.08;;;1.65;;
44078;SDS011;29744;49.078;12.878;2023-04-28T21:49:18;2.83;;;1.70;;
44078;SDS011;29744;49.078;12.878;2023-04-28T21:54:18;6.25;;;2.00;;
44078;SDS011;29744;49.078;12.878;2023-04-28T21:59:19;3.05;;;1.77;;
44078;SDS011;29744;49.078;12.878;2023-04-28T22:04:19;3.30;;;1.75;;
44078;SDS011;29744;49.078;12.878;2023-04-28T22:09:20;2.60;;;1.67;;
44078;SDS011;29744;49.078;12.878;2023-04-28T22:14:21;2.78;;;1.70;;
44078;SDS011;29744;49.078;12.878;2023-04-28T22:19:21;2.72;;;1.40;;
44078;SDS011;29744;49.078;12.878;2023-04-28T22:24:21;2.75;;;1.60;;
44078;SDS011;29744;49.078;12.878;2023-04-28T22:29:22;2.88;;;1.75;;
44078;SDS011;29744;49.078;12.878;2023-04-28T22:34:22;2.72;;;1.52;;
44078;SDS011;29744;49.078;12.878;2023-04-28T22:39:23;3.38;;;1.92;;
44078;SDS011;29744;49.078;12.878;2023-04-28T22:44:25;2.63;;;1.60;;
44078;SDS011;29744;49.078;12.878;2023-04-28T22:49:26;2.15;;;1.42;;
44078;SDS011;29744;49.078;12.878;2023-04-28T22:54:29;2.58;;;1.60;;
44078;SDS011;29744;49.078;12.878;2023-04-28T22:59:31;2.60;;;1.52;;
44078;SDS011;29744;49.078;12.878;2023-04-28T23:04:32;2.50;;;1.52;;
44078;SDS011;29744;49.078;12.878;2023-04-28T23:09:32;2.30;;;1.30;;
44078;SDS011;29744;49.078;12.878;2023-04-28T23:14:35;2.53;;;1.42;;
44078;SDS011;29744;49.078;12.878;2023-04-28T23:19:35;2.22;;;1.48;;
44078;SDS011;29744;49.078;12.878;2023-04-28T23:24:37;2.22;;;1.48;;
44078;SDS011;29744;49.078;12.878;2023-04-28T23:29:38;2.13;;;1.40;;
44078;SDS011;29744;49.078;12.878;2023-04-28T23:34:39;1.92;;;1.30;;
44078;SDS011;29744;49.078;12.878;2023-04-28T23:39:41;2.42;;;1.48;;
44078;SDS011;29744;49.078;12.878;2023-04-28T23:44:41;4.47;;;1.50;;
44078;SDS011;29744;49.078;12.878;2023-04-28T23:49:42;2.13;;;1.40;;
44078;SDS011;29744;49.078;12.878;2023-04-28T23:54:42;2.03;;;1.20;;
44078;SDS011;29744;49.078;12.878;2023-04-28T23:59:42;1.77;;;1.30;;
